Time;durP1;ratioP1;P1;durP2;ratioP2;P2;SDS_P1;SDS_P2;PMS_P1;PMS_P2;Temp;Humidity;BMP_temperature;BMP_pressure;BME280_temperature;BME280_humidity;BME280_pressure;Samples;Min_cycle;Max_cycle;Signal;HPM_P1;HPM_P2
2020/12/18 00:01:54;;;;;;;18.73;11.98;;;7.40;99.90;;;;;;5072139;28;20433;-48
2020/12/18 00:04:19;;;;;;;18.55;12.73;;;7.50;99.90;;;;;;5073257;28;20406;-48
2020/12/18 00:06:45;;;;;;;16.08;11.38;;;7.40;99.90;;;;;;5069100;28;20084;-48
2020/12/18 00:09:11;;;;;;;14.00;10.82;;;7.40;99.90;;;;;;5053920;28;20064;-49
2020/12/18 00:11:36;;;;;;;14.20;11.45;;;7.30;99.90;;;;;;5055331;28;20053;-51
2020/12/18 00:14:02;;;;;;;15.68;12.05;;;7.20;99.90;;;;;;5073076;28;20393;-52
2020/12/18 00:16:27;;;;;;;18.77;11.70;;;7.20;99.90;;;;;;5071971;28;20477;-50
2020/12/18 00:18:53;;;;;;;17.30;11.20;;;7.20;99.90;;;;;;5053106;28;20071;-49
2020/12/18 00:21:20;;;;;;;15.48;11.55;;;7.10;99.90;;;;;;5035158;28;20028;-49
2020/12/18 00:23:46;;;;;;;18.38;11.50;;;7.20;99.90;;;;;;5072010;28;20032;-50
2020/12/18 00:26:12;;;;;;;14.45;11.18;;;7.10;99.90;;;;;;5072324;28;20032;-48
2020/12/18 00:28:38;;;;;;;13.60;10.55;;;7.10;99.90;;;;;;5054777;28;20405;-50
2020/12/18 00:31:03;;;;;;;13.85;10.63;;;7.10;99.90;;;;;;5052197;28;20033;-50
2020/12/18 00:33:29;;;;;;;15.02;10.98;;;7.10;99.90;;;;;;5068757;28;20632;-48
2020/12/18 00:35:54;;;;;;;12.40;10.40;;;7.10;99.90;;;;;;5072509;28;20028;-49
2020/12/18 00:38:20;;;;;;;13.63;11.00;;;7.00;99.90;;;;;;5058158;28;20025;-50
2020/12/18 00:40:46;;;;;;;16.02;12.18;;;7.00;99.90;;;;;;5052153;28;20086;-49
2020/12/18 00:43:12;;;;;;;23.90;13.82;;;7.00;99.90;;;;;;5064636;28;20531;-50
2020/12/18 00:45:37;;;;;;;17.90;12.73;;;7.00;99.90;;;;;;5072277;28;20048;-47
2020/12/18 00:48:04;;;;;;;17.13;13.18;;;7.00;99.90;;;;;;5061626;28;20029;-47
2020/12/18 00:50:29;;;;;;;23.67;14.25;;;7.00;99.90;;;;;;5052514;28;20048;-49
2020/12/18 00:52:55;;;;;;;19.55;13.98;;;7.00;99.90;;;;;;5061021;28;20029;-47
2020/12/18 00:55:21;;;;;;;21.60;14.20;;;7.00;99.90;;;;;;5071812;28;20060;-50
2020/12/18 00:57:46;;;;;;;24.13;15.07;;;6.90;99.90;;;;;;5065503;28;20029;-52
2020/12/18 01:00:13;;;;;;;22.05;15.95;;;7.00;99.90;;;;;;5051686;28;20394;-51
2020/12/18 01:02:38;;;;;;;24.40;16.80;;;6.90;99.90;;;;;;5057507;28;20036;-47
2020/12/18 01:05:04;;;;;;;21.83;14.80;;;7.00;99.90;;;;;;5071673;28;20066;-47
2020/12/18 01:07:29;;;;;;;20.50;15.68;;;7.10;99.90;;;;;;5067532;28;20485;-48
2020/12/18 01:09:55;;;;;;;23.60;16.15;;;7.00;99.90;;;;;;5033961;28;20482;-51
2020/12/18 01:12:20;;;;;;;22.25;15.13;;;7.00;99.90;;;;;;5053781;28;20040;-49
2020/12/18 01:14:46;;;;;;;22.60;15.10;;;7.00;99.90;;;;;;5071301;28;20029;-53
2020/12/18 01:17:13;;;;;;;23.33;15.00;;;7.00;99.90;;;;;;5071016;28;20491;-49
2020/12/18 01:19:39;;;;;;;21.15;15.35;;;7.00;99.90;;;;;;5035285;28;20048;-51
2020/12/18 01:22:04;;;;;;;21.13;15.23;;;7.00;99.90;;;;;;5071672;28;20060;-49
2020/12/18 01:24:30;;;;;;;21.77;15.32;;;7.00;99.90;;;;;;5071248;28;20036;-50
2020/12/18 01:26:55;;;;;;;21.17;15.85;;;6.90;99.90;;;;;;5071598;28;20025;-54
2020/12/18 01:29:21;;;;;;;24.33;16.45;;;6.90;99.90;;;;;;5071502;28;20462;-54
2020/12/18 01:31:47;;;;;;;22.95;16.23;;;6.80;99.90;;;;;;5071389;28;20041;-54
2020/12/18 01:34:13;;;;;;;21.58;14.48;;;6.80;99.90;;;;;;5053060;28;20550;-53
2020/12/18 01:36:38;;;;;;;22.27;14.88;;;6.80;99.90;;;;;;5053284;28;20027;-55
2020/12/18 01:39:04;;;;;;;25.10;16.88;;;6.70;99.90;;;;;;5071116;28;20497;-52
2020/12/18 01:41:29;;;;;;;19.50;14.55;;;6.70;99.90;;;;;;5070347;28;20040;-51
2020/12/18 01:43:55;;;;;;;21.30;16.10;;;6.70;99.90;;;;;;5052979;28;20035;-52
2020/12/18 01:46:26;;;;;;;24.40;16.77;;;6.70;99.90;;;;;;5070890;28;20102;-53
2020/12/18 01:48:52;;;;;;;25.20;15.43;;;6.70;99.90;;;;;;5053140;28;20498;-52
2020/12/18 01:51:18;;;;;;;22.27;16.42;;;6.70;99.90;;;;;;5071231;28;20056;-50
2020/12/18 01:53:44;;;;;;;18.02;13.68;;;6.70;99.90;;;;;;5053086;28;20501;-51
2020/12/18 01:56:11;;;;;;;18.15;13.48;;;6.60;99.90;;;;;;5070820;28;20025;-50
2020/12/18 01:58:38;;;;;;;22.08;15.40;;;6.50;99.90;;;;;;5070947;28;20397;-54
2020/12/18 02:01:06;;;;;;;23.92;16.38;;;6.70;99.90;;;;;;5052871;28;20462;-51
2020/12/18 02:03:32;;;;;;;19.67;14.65;;;6.60;99.90;;;;;;5070694;28;20426;-51
2020/12/18 02:06:01;;;;;;;21.88;14.48;;;6.60;99.90;;;;;;5070322;28;20027;-52
2020/12/18 02:08:29;;;;;;;18.67;14.27;;;6.60;99.90;;;;;;5070709;28;20025;-51
2020/12/18 02:10:56;;;;;;;20.70;15.13;;;6.60;99.90;;;;;;5070776;28;20033;-49
2020/12/18 02:13:22;;;;;;;19.77;14.82;;;6.60;99.90;;;;;;5070485;28;20481;-54
2020/12/18 02:15:55;;;;;;;23.27;14.27;;;6.70;99.90;;;;;;5070285;28;20028;-51
2020/12/18 02:18:22;;;;;;;16.13;13.07;;;6.60;99.90;;;;;;5052561;28;20020;-49
2020/12/18 02:20:51;;;;;;;18.52;13.35;;;6.50;99.90;;;;;;5070591;28;20036;-51
2020/12/18 02:23:16;;;;;;;19.25;15.15;;;6.50;99.90;;;;;;5070569;28;20047;-49
2020/12/18 02:25:42;;;;;;;20.05;13.95;;;6.50;99.90;;;;;;5070383;28;20292;-49
2020/12/18 02:28:10;;;;;;;19.75;13.88;;;6.40;99.90;;;;;;5070589;28;20374;-50
2020/12/18 02:30:35;;;;;;;31.58;17.58;;;6.40;99.90;;;;;;5070642;28;20071;-51
2020/12/18 02:33:06;;;;;;;27.42;17.15;;;6.60;99.90;;;;;;5052300;28;20485;-51
2020/12/18 02:35:32;;;;;;;45.45;18.45;;;6.60;99.90;;;;;;5070265;28;20032;-53
2020/12/18 02:37:58;;;;;;;34.42;19.50;;;6.60;99.90;;;;;;5070494;28;20472;-53
2020/12/18 02:40:24;;;;;;;30.83;17.60;;;6.80;99.90;;;;;;5070332;28;20127;-50
2020/12/18 02:42:49;;;;;;;60.38;20.13;;;6.80;99.90;;;;;;5070357;28;20021;-52
2020/12/18 02:45:15;;;;;;;96.15;20.15;;;6.70;99.90;;;;;;5091626;22;20082;-53
2020/12/18 02:47:40;;;;;;;103.47;22.20;;;6.70;99.90;;;;;;5070292;28;20533;-50
2020/12/18 02:50:06;;;;;;;54.38;19.98;;;6.80;99.90;;;;;;5052291;28;20027;-50
2020/12/18 02:52:31;;;;;;;70.28;21.08;;;6.70;99.90;;;;;;5070682;28;20024;-55
2020/12/18 02:54:57;;;;;;;81.40;21.27;;;6.60;99.90;;;;;;5073660;28;20032;-51
2020/12/18 02:57:22;;;;;;;89.45;22.17;;;6.50;99.90;;;;;;5074606;28;20016;-50
2020/12/18 02:59:48;;;;;;;76.60;19.50;;;6.30;99.90;;;;;;5074611;28;20029;-53
2020/12/18 03:02:13;;;;;;;101.40;20.40;;;6.30;99.90;;;;;;5074473;28;20115;-51
2020/12/18 03:04:39;;;;;;;81.95;19.23;;;6.20;99.90;;;;;;5071888;28;20067;-47
2020/12/18 03:07:04;;;;;;;111.97;20.25;;;6.10;99.90;;;;;;5074497;28;20089;-49
2020/12/18 03:09:30;;;;;;;75.07;20.15;;;6.10;99.90;;;;;;5074442;28;20025;-53
2020/12/18 03:11:55;;;;;;;89.45;21.25;;;6.10;99.90;;;;;;5074338;28;20021;-48
2020/12/18 03:14:21;;;;;;;97.72;21.92;;;6.30;99.90;;;;;;5073357;28;20025;-46
2020/12/18 03:16:46;;;;;;;42.95;20.58;;;6.40;99.90;;;;;;5074017;28;20028;-50
2020/12/18 03:19:12;;;;;;;46.53;19.77;;;6.50;99.90;;;;;;5073916;28;20044;-55
2020/12/18 03:21:37;;;;;;;94.50;20.92;;;6.50;99.90;;;;;;5073898;28;20021;-50
2020/12/18 03:24:03;;;;;;;51.85;20.05;;;6.40;99.90;;;;;;5074102;28;20409;-51
2020/12/18 03:26:28;;;;;;;130.90;20.50;;;6.40;99.90;;;;;;5073445;28;20024;-54
2020/12/18 03:28:54;;;;;;;109.00;20.23;;;6.30;99.90;;;;;;5073617;28;20033;-57
2020/12/18 03:31:19;;;;;;;88.05;20.13;;;6.20;99.90;;;;;;5073515;28;20036;-50
2020/12/18 03:33:45;;;;;;;72.45;20.88;;;6.20;99.90;;;;;;5073501;28;20032;-51
2020/12/18 03:36:11;;;;;;;114.70;20.45;;;6.10;99.90;;;;;;5073013;28;20424;-52
2020/12/18 03:38:36;;;;;;;110.40;20.85;;;6.00;99.90;;;;;;5073756;28;20028;-55
2020/12/18 03:41:05;;;;;;;67.45;19.98;;;5.90;99.90;;;;;;5073326;28;20020;-49
2020/12/18 03:43:31;;;;;;;62.80;20.23;;;5.90;99.90;;;;;;5073172;28;20021;-50
2020/12/18 03:45:56;;;;;;;76.78;19.50;;;5.90;99.90;;;;;;5072803;28;20394;-55
2020/12/18 03:48:22;;;;;;;99.95;22.63;;;5.80;99.90;;;;;;5073338;28;20024;-47
2020/12/18 03:50:47;;;;;;;46.92;19.90;;;5.80;99.90;;;;;;5073165;28;20021;-52
2020/12/18 03:53:13;;;;;;;78.75;20.13;;;5.80;99.90;;;;;;5073146;28;20041;-50
2020/12/18 03:55:38;;;;;;;105.13;19.98;;;5.90;99.90;;;;;;5072479;28;20481;-49
2020/12/18 03:58:03;;;;;;;97.05;20.42;;;5.90;99.90;;;;;;5073215;28;20077;-48
2020/12/18 04:00:29;;;;;;;101.55;21.20;;;6.00;99.90;;;;;;5055173;28;20493;-49
2020/12/18 04:02:54;;;;;;;42.95;20.67;;;5.90;99.90;;;;;;5072983;28;20028;-54
2020/12/18 04:05:20;;;;;;;87.35;19.40;;;6.00;99.90;;;;;;5069917;28;20036;-50
2020/12/18 04:07:45;;;;;;;64.30;20.25;;;5.80;99.90;;;;;;5073376;28;20039;-53
2020/12/18 04:10:11;;;;;;;99.55;21.02;;;5.80;99.90;;;;;;5072933;28;20024;-52
2020/12/18 04:12:37;;;;;;;47.78;18.10;;;5.80;99.90;;;;;;5072921;28;20033;-47
2020/12/18 04:15:02;;;;;;;71.97;18.80;;;5.70;99.90;;;;;;5072035;28;20028;-53
2020/12/18 04:17:28;;;;;;;54.70;17.55;;;5.70;99.90;;;;;;5072869;28;20146;-52
2020/12/18 04:19:53;;;;;;;24.40;16.38;;;5.70;99.90;;;;;;5072891;28;20017;-50
2020/12/18 04:22:19;;;;;;;62.67;17.13;;;5.70;99.90;;;;;;5072984;28;20055;-47
2020/12/18 04:24:44;;;;;;;38.28;17.05;;;5.70;99.90;;;;;;5071969;28;20379;-47
2020/12/18 04:27:10;;;;;;;48.92;17.25;;;5.60;99.90;;;;;;5072565;28;20100;-47
2020/12/18 04:29:35;;;;;;;27.95;16.17;;;5.60;99.90;;;;;;5072657;28;20021;-53
2020/12/18 04:32:01;;;;;;;61.08;18.45;;;5.60;99.90;;;;;;5072441;28;20108;-52
2020/12/18 04:34:26;;;;;;;55.40;18.65;;;5.70;99.90;;;;;;5072325;28;20470;-54
2020/12/18 04:36:52;;;;;;;35.38;18.45;;;5.70;99.90;;;;;;5072085;28;20028;-50
2020/12/18 04:39:17;;;;;;;39.20;19.85;;;5.70;99.90;;;;;;5072362;28;20493;-51
2020/12/18 04:41:43;;;;;;;27.05;16.50;;;5.60;99.90;;;;;;5072224;28;20025;-50
2020/12/18 04:44:09;;;;;;;40.33;17.08;;;5.60;99.90;;;;;;5072091;28;20047;-51
2020/12/18 04:46:36;;;;;;;39.92;16.77;;;5.60;99.90;;;;;;5071506;28;20027;-54
2020/12/18 04:49:04;;;;;;;29.35;16.33;;;5.60;99.90;;;;;;5072195;28;20017;-50
2020/12/18 04:51:29;;;;;;;35.47;15.50;;;5.70;99.90;;;;;;5072133;28;20028;-51
2020/12/18 04:53:55;;;;;;;30.80;15.43;;;5.90;99.90;;;;;;5054067;28;20096;-56
2020/12/18 04:56:22;;;;;;;51.08;15.98;;;6.00;99.90;;;;;;5071216;28;20077;-54
2020/12/18 04:58:53;;;;;;;27.83;15.10;;;6.00;99.90;;;;;;5071962;28;20052;-55
2020/12/18 05:01:20;;;;;;;55.75;14.80;;;5.80;99.90;;;;;;5071837;28;20023;-49
2020/12/18 05:03:46;;;;;;;19.77;12.55;;;5.90;99.90;;;;;;5071866;28;20026;-49
2020/12/18 05:06:13;;;;;;;20.25;13.93;;;5.80;99.90;;;;;;5052129;28;20090;-52
2020/12/18 05:08:38;;;;;;;22.45;13.80;;;5.80;99.90;;;;;;5071905;28;20426;-51
2020/12/18 05:11:23;;;;;;;37.88;15.35;;;5.80;99.90;;;;;;5053796;28;20025;-53
2020/12/18 05:13:54;;;;;;;46.17;13.90;;;5.90;99.90;;;;;;5071979;28;20389;-52
2020/12/18 05:16:20;;;;;;;35.95;15.90;;;5.90;99.90;;;;;;5070779;28;20027;-55
2020/12/18 05:18:48;;;;;;;38.15;16.52;;;5.90;99.90;;;;;;5071561;28;20024;-54
2020/12/18 05:21:14;;;;;;;63.90;16.73;;;5.80;99.90;;;;;;5071441;28;20024;-53
2020/12/18 05:23:41;;;;;;;65.70;16.50;;;5.80;99.90;;;;;;5071438;28;20020;-50
2020/12/18 05:26:08;;;;;;;60.50;16.25;;;5.80;99.90;;;;;;5070699;28;20486;-51
2020/12/18 05:28:45;;;;;;;71.00;16.67;;;5.80;99.90;;;;;;5071475;28;20414;-51
2020/12/18 05:31:20;;;;;;;26.13;14.88;;;5.80;99.90;;;;;;5071371;28;20030;-53
2020/12/18 05:33:47;;;;;;;67.35;16.33;;;5.60;99.90;;;;;;5071319;28;20111;-49
2020/12/18 05:36:13;;;;;;;51.97;16.13;;;5.70;99.90;;;;;;5070436;28;20025;-54
2020/12/18 05:38:40;;;;;;;63.72;16.40;;;5.60;99.90;;;;;;5071107;28;20056;-48
2020/12/18 05:41:07;;;;;;;50.17;15.50;;;5.60;99.90;;;;;;5071105;28;20029;-52
2020/12/18 05:43:38;;;;;;;48.45;16.80;;;5.60;99.90;;;;;;5071190;28;20035;-46
2020/12/18 05:46:20;;;;;;;118.85;15.85;;;5.70;99.90;;;;;;5070548;28;20521;-47
2020/12/18 05:48:55;;;;;;;133.77;17.75;;;5.60;99.90;;;;;;5071514;28;20032;-47
2020/12/18 05:51:40;;;;;;;100.18;16.40;;;5.60;99.90;;;;;;5053357;28;20063;-51
2020/12/18 05:54:19;;;;;;;158.32;19.15;;;5.50;99.90;;;;;;5071046;28;20561;-49
2020/12/18 05:56:51;;;;;;;86.60;17.30;;;5.50;99.90;;;;;;5070643;28;20093;-47
2020/12/18 05:59:20;;;;;;;26.05;14.82;;;5.40;99.90;;;;;;5071069;28;20021;-48
2020/12/18 06:01:48;;;;;;;71.90;17.13;;;5.30;99.90;;;;;;5071039;28;20067;-51
2020/12/18 06:04:22;;;;;;;19.30;14.50;;;5.30;99.90;;;;;;5070816;28;20024;-53
2020/12/18 06:06:55;;;;;;;61.63;15.95;;;5.30;99.90;;;;;;5052398;28;20033;-51
2020/12/18 06:09:27;;;;;;;38.05;14.57;;;5.30;99.90;;;;;;5070868;28;20020;-50
2020/12/18 06:11:53;;;;;;;33.55;14.73;;;5.30;99.90;;;;;;5072002;28;20028;-54
2020/12/18 06:14:21;;;;;;;20.70;13.60;;;5.20;99.90;;;;;;5072095;28;20286;-48
2020/12/18 06:16:49;;;;;;;59.33;14.70;;;5.10;99.90;;;;;;5071108;28;20047;-48
2020/12/18 06:19:17;;;;;;;56.53;14.00;;;5.20;99.90;;;;;;5070759;28;20021;-52
2020/12/18 06:21:59;;;;;;;24.00;13.15;;;5.30;99.90;;;;;;5071386;28;20048;-46
2020/12/18 06:24:24;;;;;;;20.75;12.93;;;5.10;99.90;;;;;;5071138;28;20017;-47
2020/12/18 06:26:57;;;;;;;59.88;12.13;;;5.10;99.90;;;;;;5069948;28;20039;-47
2020/12/18 06:29:25;;;;;;;40.45;11.25;;;5.10;99.90;;;;;;5070123;28;20031;-51
2020/12/18 06:31:51;;;;;;;33.47;11.63;;;5.10;99.90;;;;;;5070641;28;20028;-48
2020/12/18 06:34:26;;;;;;;68.05;12.73;;;5.00;99.90;;;;;;5070377;28;20021;-52
2020/12/18 06:36:52;;;;;;;66.07;12.20;;;5.10;99.90;;;;;;5069636;28;20035;-53
2020/12/18 06:39:36;;;;;;;60.88;12.93;;;4.90;99.90;;;;;;5070321;28;20020;-48
2020/12/18 06:42:17;;;;;;;62.63;12.05;;;4.80;99.90;;;;;;5070526;28;20113;-52
2020/12/18 06:44:48;;;;;;;42.25;11.18;;;4.70;99.90;;;;;;5069555;28;20036;-48
2020/12/18 06:47:15;;;;;;;63.55;13.50;;;4.60;99.90;;;;;;5070913;28;20039;-50
2020/12/18 06:49:56;;;;;;;36.25;12.50;;;4.60;99.90;;;;;;5070357;28;20138;-51
2020/12/18 06:52:37;;;;;;;60.03;15.32;;;4.60;99.90;;;;;;5070218;28;20449;-56
2020/12/18 06:55:03;;;;;;;47.67;13.48;;;4.70;99.90;;;;;;5069338;28;20103;-51
2020/12/18 06:57:29;;;;;;;78.30;13.00;;;4.70;99.90;;;;;;5070095;28;20029;-51
2020/12/18 07:00:27;;;;;;;16.13;12.07;;;4.70;99.90;;;;;;5069954;28;20024;-53
2020/12/18 07:02:53;;;;;;;24.00;14.70;;;4.70;99.90;;;;;;5070081;28;20021;-52
2020/12/18 07:05:32;;;;;;;19.33;11.45;;;4.80;99.90;;;;;;5050087;28;20560;-52
2020/12/18 07:07:59;;;;;;;69.10;13.85;;;4.80;99.90;;;;;;5070107;28;20107;-51
2020/12/18 07:10:26;;;;;;;74.93;13.95;;;4.90;99.90;;;;;;5052168;28;20505;-49
2020/12/18 07:12:56;;;;;;;22.33;13.52;;;4.90;99.90;;;;;;5070142;28;20028;-50
2020/12/18 07:15:21;;;;;;;64.22;14.75;;;5.00;99.90;;;;;;5069353;28;20412;-50
2020/12/18 07:17:50;;;;;;;26.85;14.43;;;5.00;99.90;;;;;;5069946;28;20024;-50
2020/12/18 07:20:15;;;;;;;50.83;14.25;;;5.00;99.90;;;;;;5069981;28;20408;-50
2020/12/18 07:22:41;;;;;;;45.95;13.25;;;5.00;99.90;;;;;;5069879;28;20030;-51
2020/12/18 07:25:12;;;;;;;60.30;14.68;;;4.90;99.90;;;;;;5069157;28;20117;-53
2020/12/18 07:27:39;;;;;;;32.33;13.77;;;4.90;99.90;;;;;;5069960;28;20111;-53
2020/12/18 07:30:11;;;;;;;47.05;15.00;;;4.90;99.90;;;;;;5069870;28;20036;-52
2020/12/18 07:32:37;;;;;;;22.90;14.07;;;4.90;99.90;;;;;;5069952;28;20036;-52
2020/12/18 07:35:07;;;;;;;22.45;13.18;;;4.90;99.90;;;;;;5068972;28;20429;-50
2020/12/18 07:37:36;;;;;;;52.97;13.32;;;4.90;99.90;;;;;;5069850;28;20056;-51
2020/12/18 07:40:05;;;;;;;23.73;13.65;;;4.90;99.90;;;;;;5070886;28;20095;-51
2020/12/18 07:42:32;;;;;;;50.20;15.45;;;5.00;99.90;;;;;;5073486;28;20103;-50
2020/12/18 07:45:08;;;;;;;26.48;13.27;;;5.00;99.90;;;;;;5072763;28;20063;-51
2020/12/18 07:47:38;;;;;;;41.03;13.25;;;5.10;99.90;;;;;;5073628;28;20035;-47
2020/12/18 07:50:06;;;;;;;18.25;12.82;;;5.10;99.90;;;;;;5073733;28;20365;-54
2020/12/18 07:52:34;;;;;;;19.52;12.70;;;5.10;99.90;;;;;;5073359;28;20230;-53
2020/12/18 07:54:59;;;;;;;36.30;13.65;;;5.20;99.90;;;;;;5072862;28;20051;-49
2020/12/18 07:57:25;;;;;;;41.70;14.90;;;5.20;99.90;;;;;;5073426;28;20017;-50
2020/12/18 07:59:51;;;;;;;36.97;14.23;;;5.20;99.90;;;;;;5073418;28;20483;-53
2020/12/18 08:02:24;;;;;;;33.50;13.02;;;5.20;99.90;;;;;;5073124;28;20391;-50
2020/12/18 08:04:59;;;;;;;48.10;14.80;;;5.20;99.90;;;;;;5071204;28;20054;-50
2020/12/18 08:07:24;;;;;;;16.17;12.15;;;5.20;99.90;;;;;;5073234;28;20028;-52
2020/12/18 08:10:03;;;;;;;27.13;13.75;;;5.10;99.90;;;;;;5055178;28;20454;-49
2020/12/18 08:12:29;;;;;;;29.58;13.52;;;5.10;99.90;;;;;;5073112;28;20496;-56
2020/12/18 08:15:08;;;;;;;32.05;12.90;;;5.10;99.90;;;;;;5072117;28;20111;-55
2020/12/18 08:17:35;;;;;;;59.33;13.52;;;5.10;99.90;;;;;;5072794;28;20111;-52
2020/12/18 08:20:02;;;;;;;39.58;12.80;;;5.10;99.90;;;;;;5073208;28;20017;-50
2020/12/18 08:22:32;;;;;;;28.63;13.82;;;5.10;99.90;;;;;;5072838;28;20078;-52
2020/12/18 08:24:59;;;;;;;20.55;13.45;;;5.10;99.90;;;;;;5072007;28;20494;-52
2020/12/18 08:27:29;;;;;;;33.83;13.35;;;5.10;99.90;;;;;;5072663;28;20036;-52
2020/12/18 08:29:54;;;;;;;82.25;16.40;;;5.20;99.90;;;;;;5054581;28;20052;-50
2020/12/18 08:32:28;;;;;;;41.00;14.00;;;5.20;99.90;;;;;;5072624;28;20020;-51
2020/12/18 08:35:05;;;;;;;29.73;15.25;;;5.20;99.90;;;;;;5071733;28;20021;-56
2020/12/18 08:37:31;;;;;;;65.72;15.13;;;5.20;99.90;;;;;;5054616;28;20024;-50
2020/12/18 08:39:57;;;;;;;41.67;14.60;;;5.20;99.90;;;;;;5072634;28;20016;-52
2020/12/18 08:42:22;;;;;;;41.78;15.93;;;5.20;99.90;;;;;;5054595;28;20482;-53
2020/12/18 08:44:48;;;;;;;47.28;15.45;;;5.20;99.90;;;;;;5080711;22;20049;-55
2020/12/18 08:47:27;;;;;;;58.22;15.50;;;5.20;99.90;;;;;;5052240;28;20037;-52
2020/12/18 08:49:55;;;;;;;89.07;15.57;;;5.20;99.90;;;;;;5052351;28;20421;-51
2020/12/18 08:52:28;;;;;;;35.53;16.52;;;5.20;99.90;;;;;;5033678;28;20438;-54
2020/12/18 08:55:07;;;;;;;28.90;15.30;;;5.20;99.90;;;;;;5051377;28;20031;-50
2020/12/18 08:57:36;;;;;;;70.03;17.52;;;5.20;99.90;;;;;;5052205;28;20027;-51
2020/12/18 09:00:12;;;;;;;43.00;16.73;;;5.20;99.90;;;;;;5034164;28;20056;-50
2020/12/18 09:02:59;;;;;;;38.50;15.00;;;5.20;99.90;;;;;;5051853;28;20508;-54
2020/12/18 09:05:24;;;;;;;36.22;15.30;;;5.20;99.90;;;;;;5049825;28;20472;-50
2020/12/18 09:07:54;;;;;;;41.42;18.05;;;5.30;99.90;;;;;;5051738;28;20053;-53
2020/12/18 09:10:53;;;;;;;36.00;14.60;;;5.30;99.90;;;;;;5051750;28;20043;-52
2020/12/18 09:13:27;;;;;;;36.20;14.77;;;5.40;99.90;;;;;;5051447;28;20029;-57
2020/12/18 09:15:56;;;;;;;42.15;13.68;;;5.40;99.90;;;;;;5050963;28;20025;-53
2020/12/18 09:18:25;;;;;;;29.45;14.70;;;5.50;99.90;;;;;;5051406;28;20013;-54
2020/12/18 09:20:55;;;;;;;47.05;14.63;;;5.50;99.90;;;;;;5033638;28;20024;-50
2020/12/18 09:23:31;;;;;;;23.73;14.40;;;5.60;99.90;;;;;;5051374;28;20082;-52
2020/12/18 09:25:58;;;;;;;27.88;15.48;;;5.60;99.90;;;;;;5032685;28;20044;-53
2020/12/18 09:28:24;;;;;;;25.52;14.57;;;5.60;99.90;;;;;;5051463;28;20059;-55
2020/12/18 09:30:57;;;;;;;38.50;14.48;;;5.70;99.90;;;;;;5051433;28;20100;-53
2020/12/18 09:33:26;;;;;;;29.25;15.32;;;5.70;99.90;;;;;;5033550;28;20041;-49
2020/12/18 09:36:10;;;;;;;34.72;15.30;;;5.80;99.90;;;;;;5050630;28;20025;-48
2020/12/18 09:38:40;;;;;;;27.65;13.75;;;5.80;99.90;;;;;;5051159;28;20049;-51
2020/12/18 09:41:09;;;;;;;35.95;14.05;;;5.80;99.90;;;;;;5051011;28;20446;-48
2020/12/18 09:43:35;;;;;;;18.80;12.57;;;5.80;99.90;;;;;;5051005;28;20013;-52
2020/12/18 09:46:01;;;;;;;32.97;13.43;;;5.90;99.90;;;;;;5050290;28;20033;-56
2020/12/18 09:48:27;;;;;;;31.33;14.60;;;5.90;99.90;;;;;;5050858;28;20031;-52
2020/12/18 09:50:58;;;;;;;30.88;15.18;;;5.90;99.90;;;;;;5051119;28;20569;-53
2020/12/18 09:53:26;;;;;;;31.45;13.93;;;5.90;99.90;;;;;;5051158;28;20029;-48
2020/12/18 09:55:52;;;;;;;32.17;15.43;;;5.90;99.90;;;;;;5050130;28;20128;-51
2020/12/18 09:58:18;;;;;;;36.13;14.63;;;6.00;99.90;;;;;;5050749;28;20027;-52
2020/12/18 10:00:44;;;;;;;46.63;14.20;;;6.00;99.90;;;;;;5050738;28;20541;-52
2020/12/18 10:03:09;;;;;;;43.58;14.68;;;6.10;99.90;;;;;;5049844;28;20025;-50
2020/12/18 10:05:35;;;;;;;31.90;15.43;;;6.00;99.90;;;;;;5047904;28;20289;-52
2020/12/18 10:08:02;;;;;;;39.22;14.88;;;6.00;99.90;;;;;;5050509;28;20440;-50
2020/12/18 10:10:27;;;;;;;57.65;14.73;;;5.90;99.90;;;;;;5050755;28;20397;-55
2020/12/18 10:12:54;;;;;;;39.08;16.00;;;6.00;99.90;;;;;;5050447;28;20033;-53
2020/12/18 10:15:20;;;;;;;33.83;15.40;;;5.90;99.90;;;;;;5049424;28;20029;-51
2020/12/18 10:17:46;;;;;;;35.40;18.05;;;5.90;99.90;;;;;;5050454;28;20513;-52
2020/12/18 10:20:12;;;;;;;35.20;15.10;;;6.00;99.90;;;;;;5050440;28;20025;-52
2020/12/18 10:22:37;;;;;;;38.08;15.88;;;6.00;99.90;;;;;;5050248;28;20021;-53
2020/12/18 10:25:03;;;;;;;50.45;15.10;;;6.00;99.90;;;;;;5049486;28;20043;-55
2020/12/18 10:27:28;;;;;;;57.20;16.77;;;6.00;99.90;;;;;;5032014;28;20371;-52
2020/12/18 10:29:57;;;;;;;42.47;16.27;;;6.00;99.90;;;;;;5050146;28;20124;-54
2020/12/18 10:32:26;;;;;;;46.63;15.95;;;6.00;99.90;;;;;;5050011;28;20025;-53
2020/12/18 10:34:52;;;;;;;61.45;17.05;;;6.00;99.90;;;;;;5049993;28;20079;-52
2020/12/18 10:37:17;;;;;;;67.35;16.27;;;6.00;99.90;;;;;;5049428;28;20025;-51
2020/12/18 10:39:43;;;;;;;54.42;16.25;;;5.90;99.90;;;;;;5050173;28;20053;-52
2020/12/18 10:42:09;;;;;;;62.30;18.13;;;5.90;99.90;;;;;;5050132;28;20467;-51
2020/12/18 10:44:35;;;;;;;47.97;15.90;;;5.80;99.90;;;;;;5032159;28;20060;-49
2020/12/18 10:47:00;;;;;;;43.38;16.65;;;5.80;99.90;;;;;;5049914;28;20526;-51
2020/12/18 10:49:26;;;;;;;53.63;16.55;;;5.90;99.90;;;;;;5050485;28;20120;-50
2020/12/18 10:51:52;;;;;;;42.92;15.32;;;5.80;99.90;;;;;;5050554;28;20390;-51
2020/12/18 10:54:18;;;;;;;61.10;17.35;;;6.00;99.90;;;;;;5050156;28;20040;-51
2020/12/18 10:56:46;;;;;;;36.15;14.70;;;6.10;99.90;;;;;;5049384;28;20021;-51
2020/12/18 10:59:12;;;;;;;39.40;15.90;;;6.20;99.90;;;;;;5047524;28;20021;-54
2020/12/18 11:01:38;;;;;;;43.95;15.70;;;6.20;99.90;;;;;;5037688;28;20502;-55
2020/12/18 11:04:04;;;;;;;33.22;13.63;;;6.20;99.90;;;;;;5038483;28;20044;-54
2020/12/18 11:06:30;;;;;;;25.02;12.63;;;6.20;99.90;;;;;;5032039;28;20033;-52
2020/12/18 11:08:56;;;;;;;30.67;13.40;;;6.20;99.90;;;;;;5030125;28;20040;-55
2020/12/18 11:11:22;;;;;;;31.17;14.98;;;6.20;99.90;;;;;;5044661;28;20033;-52
2020/12/18 11:13:47;;;;;;;27.45;13.55;;;6.20;99.90;;;;;;5028769;28;20044;-54
2020/12/18 11:16:16;;;;;;;24.20;13.95;;;6.20;99.90;;;;;;5051434;28;20043;-51
2020/12/18 11:18:42;;;;;;;26.25;13.60;;;6.20;99.90;;;;;;5053987;28;20502;-52
2020/12/18 11:21:07;;;;;;;42.35;13.00;;;6.30;99.90;;;;;;5033121;28;20044;-48
2020/12/18 11:23:35;;;;;;;34.00;13.40;;;6.40;99.90;;;;;;5026086;28;20481;-52
2020/12/18 11:26:01;;;;;;;21.77;12.55;;;6.50;99.90;;;;;;5053148;28;20091;-52
2020/12/18 11:28:26;;;;;;;31.52;13.73;;;6.30;99.90;;;;;;5035541;28;20025;-54
2020/12/18 11:30:52;;;;;;;32.05;14.70;;;6.40;99.90;;;;;;5052560;28;20033;-61
2020/12/18 11:33:17;;;;;;;28.27;13.57;;;6.40;99.90;;;;;;5028751;28;20028;-50
2020/12/18 11:35:43;;;;;;;26.60;13.98;;;6.40;99.90;;;;;;5031795;28;20387;-51
2020/12/18 11:38:09;;;;;;;21.73;13.38;;;6.40;99.90;;;;;;5059753;28;20027;-50
2020/12/18 11:40:34;;;;;;;24.17;14.18;;;6.30;99.90;;;;;;5040622;28;20539;-54
2020/12/18 11:43:00;;;;;;;23.83;13.70;;;6.20;99.90;;;;;;5045153;28;20101;-52
2020/12/18 11:45:25;;;;;;;26.95;14.73;;;6.10;99.90;;;;;;5050551;28;20033;-50
2020/12/18 11:47:51;;;;;;;23.00;13.80;;;6.10;99.90;;;;;;5051829;28;20043;-51
2020/12/18 11:50:17;;;;;;;28.58;15.95;;;6.10;99.90;;;;;;5050576;28;20434;-56
2020/12/18 11:52:42;;;;;;;24.67;14.10;;;6.10;99.90;;;;;;5044646;28;20035;-58
2020/12/18 11:55:08;;;;;;;23.08;14.35;;;6.20;99.90;;;;;;5031010;28;20032;-56
2020/12/18 11:57:33;;;;;;;23.55;14.38;;;6.20;99.90;;;;;;5015146;28;20014;-50
2020/12/18 11:59:59;;;;;;;23.63;14.63;;;6.20;99.90;;;;;;5048321;28;20409;-59
2020/12/18 12:02:24;;;;;;;26.38;13.90;;;6.10;99.90;;;;;;5042292;28;20028;-51
2020/12/18 12:04:50;;;;;;;33.08;15.48;;;6.00;99.90;;;;;;5052253;28;20032;-55
2020/12/18 12:07:15;;;;;;;37.47;15.48;;;6.10;99.90;;;;;;5045600;28;20455;-55
2020/12/18 12:09:41;;;;;;;26.23;15.15;;;6.10;99.90;;;;;;5031719;28;20042;-57
2020/12/18 12:12:11;;;;;;;33.28;17.45;;;6.10;99.90;;;;;;5033335;28;20041;-59
2020/12/18 12:14:37;;;;;;;27.98;16.83;;;6.10;99.90;;;;;;5030353;28;20033;-59
2020/12/18 12:17:02;;;;;;;30.98;17.35;;;6.20;99.90;;;;;;5034127;28;20017;-57
2020/12/18 12:19:30;;;;;;;30.77;18.13;;;6.10;99.90;;;;;;5048522;28;20029;-47
2020/12/18 12:21:56;;;;;;;34.45;19.02;;;6.30;99.90;;;;;;5043431;28;20021;-59
2020/12/18 12:24:21;;;;;;;32.55;19.05;;;6.40;99.90;;;;;;5045924;28;20021;-51
2020/12/18 12:26:48;;;;;;;40.75;18.27;;;6.40;99.90;;;;;;5031344;28;20025;-54
2020/12/18 12:29:14;;;;;;;34.72;19.10;;;6.30;99.90;;;;;;5047683;28;20083;-49
2020/12/18 12:31:39;;;;;;;40.03;19.40;;;6.20;99.90;;;;;;5047653;28;20430;-53
2020/12/18 12:34:05;;;;;;;47.42;18.60;;;6.20;99.90;;;;;;5032721;28;20017;-50
2020/12/18 12:36:30;;;;;;;60.35;16.52;;;6.20;99.90;;;;;;5032326;28;20040;-52
2020/12/18 12:38:56;;;;;;;38.88;19.20;;;6.20;99.90;;;;;;5051953;28;20525;-50